Flight Track Log - Related Links

Times and Time Zones

All times are in EDT time to prevent confusion due to time zone crossing. See the ANT208 flight status page for this flight to view local times or setup timezone preferences in your user account.

Time Position Orientation Groundspeed Altitude Reporting Facility
EDT Latitude Longitude Course Direction KTS MPH feet Rate Location/Type
Thu 01:57:00 PM 68.2408 -134.3287 253° West  Level FlightAware Approximate
Thu 01:58:00 PM 68.2240 -134.4712 252° West  Level FlightAware Approximate
Thu 01:59:00 PM 68.2104 -134.6158 258° West  Level FlightAware Approximate
Thu 02:00:00 PM 68.1992 -134.7620 258° West  Level FlightAware Approximate
Thu 02:01:00 PM 68.1879 -134.9081 258° West  Level FlightAware Approximate
Thu 02:02:00 PM 68.1714 -135.0500 249° West  Level FlightAware Approximate
Thu 02:03:00 PM 68.1548 -135.1921 254° West  Level FlightAware Approximate
Thu 02:04:00 PM 68.1392 -135.3349 254° West  Level FlightAware Approximate
Thu 02:05:00 PM 68.1234 -135.4776 254° West  Level FlightAware Approximate
Thu 02:06:00 PM 68.1074 -135.6200 253° West  Level FlightAware Approximate
Thu 02:07:00 PM 68.0914 -135.7623 253° West  Level FlightAware Approximate
Thu 02:08:00 PM 68.0752 -135.9043 253° West  Level FlightAware Approximate
Thu 02:09:00 PM 68.0589 -136.0461 253° West  Level FlightAware Approximate
Thu 02:10:00 PM 68.0425 -136.1878 253° West  Level FlightAware Approximate
Thu 02:11:00 PM 68.0260 -136.3293 253° West  Level FlightAware Approximate
Thu 02:12:00 PM 68.0093 -136.4705 253° West  Level FlightAware Approximate
Thu 02:13:00 PM 67.9926 -136.6115 252° West  Level FlightAware Approximate
Thu 02:14:00 PM 67.9757 -136.7524 252° West  Level FlightAware Approximate
Thu 02:15:00 PM 67.9586 -136.8930 252° West  Level FlightAware Approximate
Thu 02:16:00 PM 67.9415 -137.0334 252° West  Level FlightAware Approximate
Thu 02:17:00 PM 67.9243 -137.1736 252° West  Level FlightAware Approximate
Thu 02:18:00 PM 67.9069 -137.3136 252° West  Level FlightAware Approximate
Thu 02:19:00 PM 67.8894 -137.4534 252° West  Level FlightAware Approximate
Thu 02:20:00 PM 67.8718 -137.5930 252° West  Level FlightAware Approximate
Thu 02:21:00 PM 67.8533 -137.7317 250° West  Level FlightAware Approximate
Thu 02:22:00 PM 67.8345 -137.8700 250° West  Level FlightAware Approximate
Thu 02:23:00 PM 67.8157 -138.0081 253° West  Level FlightAware Approximate
Thu 02:24:00 PM 67.7990 -138.1481 253° West  Level FlightAware Approximate
Thu 02:25:00 PM 67.7823 -138.2878 252° West  Level FlightAware Approximate
Thu 02:26:00 PM 67.7651 -138.4271 248° West  Level FlightAware Approximate
Thu 02:27:00 PM 67.7441 -138.5626 248° West  Level FlightAware Approximate
Thu 02:28:00 PM 67.7230 -138.6979 248° West  Level FlightAware Approximate
Thu 02:29:00 PM 67.7018 -138.8330 248° West  Level FlightAware Approximate
Thu 02:30:00 PM 67.6816 -138.9688 257° West  Level FlightAware Approximate
Thu 02:31:00 PM 67.6687 -139.1107 257° West  Level FlightAware Approximate
Thu 02:32:00 PM 67.6503 -139.2481 250° West  Level FlightAware Approximate
Thu 02:33:00 PM 67.6306 -139.3843 248° West  Level FlightAware Approximate
Thu 02:34:00 PM 67.6099 -139.5193 248° West  Level FlightAware Approximate
Thu 02:35:00 PM 67.5884 -139.6533 246° West  Level FlightAware Approximate
Thu 02:36:00 PM 67.5667 -139.7867 270° West  Level FlightAware Approximate
Thu 02:37:00 PM 67.5667 -139.8333 North  Level FlightAware Approximate
Thu 02:38:00 PM 67.5706 -139.8392 North  Level Estimated
Thu 02:39:00 PM 67.5667 -139.8333 North  Level FlightAware Approximate
Thu 02:40:00 PM 67.5706 -139.8392 North  Level Estimated
Thu 02:41:00 PM 67.5667 -139.8333 North  Level FlightAware Approximate
Thu 02:42:00 PM 67.5706 -139.8392 North  Level Estimated
Thu 02:43:00 PM 67.5667 -139.8333 North  Level FlightAware Approximate
Thu 02:44:00 PM 67.5706 -139.8392 North  Level Estimated
Thu 02:45:00 PM 67.5667 -139.8333 North  Level FlightAware Approximate
Thu 02:46:00 PM 67.5706 -139.8392 North  Level Estimated
Thu 02:47:00 PM 67.5667 -139.8333 North  Level FlightAware Approximate
Thu 02:48:00 PM 67.5706 -139.8392 North  Level Estimated
Thu 02:49:00 PM 67.5667 -139.8333 North  Level FlightAware Approximate
Thu 02:50:00 PM 67.5706 -139.8392 North  Level Estimated
Thu 02:51:00 PM 67.5667 -139.8333 North  Level FlightAware Approximate
Thu 02:52:00 PM 67.5706 -139.8392 North  Level Estimated

Login

Don't have an account? Register now (free) for customized features, flight alerts, and more!